createdAt,value
2022-07-30T07:02:51.078Z,58.9
2022-07-30T07:09:05.609Z,58.9
2022-07-30T07:14:54.007Z,58.9
2022-07-30T07:21:24.259Z,58.8
2022-07-30T07:27:31.977Z,58.8
2022-07-30T07:34:40.431Z,58.7
2022-07-30T07:40:21.005Z,58.7
2022-07-30T07:46:03.884Z,58.6
2022-07-30T07:58:13.057Z,58.5
2022-07-30T08:03:27.515Z,58.5
2022-07-30T08:09:40.986Z,58.4
2022-07-30T08:16:08.226Z,58.4
2022-07-30T08:21:55.837Z,58.4
2022-07-30T08:27:38.550Z,58.3
2022-07-30T08:33:51.356Z,58.3
2022-07-30T08:39:49.199Z,58.3
2022-07-30T08:45:34.378Z,58.2
2022-07-30T08:51:24.748Z,58.3
2022-07-30T09:03:17.017Z,59
2022-07-30T09:08:41.816Z,59.4
2022-07-30T09:14:23.253Z,59.8
2022-07-30T09:19:53.657Z,60.3
2022-07-30T09:25:30.761Z,60.6
2022-07-30T09:31:08.590Z,61.1
2022-07-30T09:36:49.525Z,61.4
2022-07-30T09:43:03.110Z,61.8
2022-07-30T09:48:33.125Z,62.4
2022-07-30T10:04:31.244Z,63.3
2022-07-30T10:10:25.469Z,63.8
2022-07-30T10:16:34.195Z,64.2
2022-07-30T10:22:17.117Z,64.6
2022-07-30T10:30:07.170Z,65.1
2022-07-30T10:37:35.664Z,65.5
2022-07-30T10:43:48.144Z,65.9
2022-07-30T10:49:58.019Z,66.2
2022-07-30T10:55:54.948Z,66.6
2022-07-30T11:02:19.572Z,66.9
2022-07-30T11:08:48.658Z,67.3
2022-07-30T11:15:36.161Z,67.6
2022-07-30T11:22:03.257Z,67.9
2022-07-30T11:28:35.716Z,68.1
2022-07-30T11:35:17.674Z,68.3
2022-07-30T11:41:36.168Z,68.5
